createdAt,value
2023-04-02T00:00:16.000Z,7.6
2023-04-02T00:05:10.000Z,7.6
2023-04-02T00:10:04.000Z,7.51
2023-04-02T00:14:58.000Z,7.48
2023-04-02T00:19:53.000Z,7.47
2023-04-02T00:24:47.000Z,7.48
2023-04-02T00:29:40.000Z,7.53
2023-04-02T00:34:34.000Z,7.5
2023-04-02T00:39:28.000Z,7.47
2023-04-02T00:44:22.000Z,7.56
2023-04-02T00:49:13.000Z,7.54
2023-04-02T00:54:08.000Z,7.43
2023-04-02T00:59:02.000Z,7.54
2023-04-02T01:03:57.000Z,7.61
2023-04-02T01:08:48.000Z,7.49
2023-04-02T01:13:41.000Z,7.56
2023-04-02T01:18:35.000Z,7.6
2023-04-02T01:23:30.000Z,7.62
2023-04-02T01:28:24.000Z,7.58
2023-04-02T01:33:17.000Z,7.6
2023-04-02T01:38:11.000Z,7.58
2023-04-02T01:43:05.000Z,7.49
2023-04-02T01:48:00.000Z,7.54
2023-04-02T01:52:53.000Z,7.61
2023-04-02T01:57:47.000Z,7.67
2023-04-02T02:02:38.000Z,7.64
2023-04-02T02:07:32.000Z,7.6
2023-04-02T02:12:27.000Z,7.63
2023-04-02T02:17:21.000Z,7.51
2023-04-02T02:22:15.000Z,7.45
2023-04-02T02:27:09.000Z,7.44
2023-04-02T02:32:03.000Z,7.46
2023-04-02T02:36:57.000Z,7.48
2023-04-02T02:41:51.000Z,7.45
2023-04-02T02:46:46.000Z,7.39
2023-04-02T02:51:39.000Z,7.42
2023-04-02T02:56:34.000Z,7.39
2023-04-02T03:01:28.000Z,7.4
2023-04-02T03:06:22.000Z,7.41
2023-04-02T03:11:16.000Z,7.41
2023-04-02T03:16:10.000Z,7.4
2023-04-02T03:21:06.000Z,7.36
2023-04-02T03:25:56.000Z,7.32
2023-04-02T03:30:50.000Z,7.3
2023-04-02T03:35:44.000Z,7.31
2023-04-02T03:40:38.000Z,7.3
2023-04-02T03:45:32.000Z,7.21
2023-04-02T03:50:26.000Z,7.12
2023-04-02T03:55:23.000Z,7
2023-04-02T04:00:14.000Z,7.01
2023-04-02T04:05:08.000Z,7.04
2023-04-02T04:10:02.000Z,7.06
2023-04-02T04:14:54.000Z,7.06
2023-04-02T04:19:48.000Z,7.06
2023-04-02T04:24:41.000Z,6.98
2023-04-02T04:29:36.000Z,6.99
2023-04-02T04:34:28.000Z,6.93
2023-04-02T04:39:22.000Z,6.85
2023-04-02T04:44:16.000Z,6.9
2023-04-02T04:49:13.000Z,6.89
2023-04-02T04:54:02.000Z,6.91
2023-04-02T04:58:56.000Z,7.07
2023-04-02T05:03:50.000Z,7.12
2023-04-02T05:08:44.000Z,7.17
2023-04-02T05:13:38.000Z,7.14
2023-04-02T05:18:33.000Z,7.23
2023-04-02T05:23:27.000Z,7.39
2023-04-02T05:28:22.000Z,7.36
2023-04-02T05:33:12.000Z,7.38
2023-04-02T05:38:08.000Z,7.38
2023-04-02T05:42:59.000Z,7.32
2023-04-02T05:47:53.000Z,7.36
2023-04-02T05:52:47.000Z,7.53
2023-04-02T05:57:41.000Z,7.67
2023-04-02T06:02:34.000Z,7.72
2023-04-02T06:07:28.000Z,7.97
2023-04-02T06:12:25.000Z,8.04
2023-04-02T06:17:16.000Z,8
2023-04-02T06:22:10.000Z,8.23
2023-04-02T06:27:05.000Z,8.41
2023-04-02T06:31:58.000Z,8.54
2023-04-02T06:36:52.000Z,8.49
2023-04-02T06:41:46.000Z,8.21
2023-04-02T06:46:40.000Z,8.24
2023-04-02T06:51:34.000Z,8.25
2023-04-02T06:56:28.000Z,8.17
2023-04-02T07:01:22.000Z,7.86
2023-04-02T07:06:14.000Z,8.02
2023-04-02T07:11:08.000Z,7.84
2023-04-02T07:16:03.000Z,7.76
2023-04-02T07:20:56.000Z,7.61
2023-04-02T07:25:50.000Z,7.94
2023-04-02T07:30:44.000Z,7.7
2023-04-02T07:35:38.000Z,7.58
2023-04-02T07:40:32.000Z,7.51
2023-04-02T07:45:27.000Z,7.39
2023-04-02T07:50:20.000Z,7.49
2023-04-02T07:55:13.000Z,7.5
2023-04-02T08:00:07.000Z,7.35
2023-04-02T08:05:01.000Z,7.34
2023-04-02T08:09:55.000Z,7.39
2023-04-02T08:14:47.000Z,7.25
2023-04-02T08:19:41.000Z,7.2
2023-04-02T08:24:35.000Z,7.03
2023-04-02T08:29:29.000Z,7.17
2023-04-02T08:34:23.000Z,7.28
2023-04-02T08:39:18.000Z,7.49
2023-04-02T08:44:12.000Z,7.42
2023-04-02T08:49:06.000Z,7.58
2023-04-02T08:54:01.000Z,7.48
2023-04-02T08:58:55.000Z,7.31
2023-04-02T09:03:49.000Z,7.25
2023-04-02T09:08:43.000Z,7.22
2023-04-02T09:13:37.000Z,7.2
2023-04-02T09:18:31.000Z,7.1
2023-04-02T09:23:25.000Z,6.8
2023-04-02T09:28:19.000Z,7.13
2023-04-02T09:33:13.000Z,7.29
2023-04-02T09:38:07.000Z,7.42
2023-04-02T09:43:00.000Z,8.06
2023-04-02T09:47:54.000Z,7.64
2023-04-02T09:52:47.000Z,7.38
2023-04-02T09:57:40.000Z,7.63
2023-04-02T10:02:34.000Z,7.85
2023-04-02T10:07:28.000Z,7.62
2023-04-02T10:12:22.000Z,7.63
2023-04-02T10:17:15.000Z,7.72
2023-04-02T10:22:09.000Z,7.25
2023-04-02T10:27:03.000Z,7.41
2023-04-02T10:31:57.000Z,7.37
2023-04-02T10:36:51.000Z,7.44
2023-04-02T10:41:43.000Z,7.3
2023-04-02T10:46:37.000Z,7.11
2023-04-02T10:51:31.000Z,6.89
2023-04-02T10:56:25.000Z,7.27
2023-04-02T11:01:19.000Z,7.51
2023-04-02T11:06:11.000Z,7.47
2023-04-02T11:11:05.000Z,8.18
2023-04-02T11:16:00.000Z,8.2
2023-04-02T11:20:55.000Z,8.08
2023-04-02T11:25:49.000Z,8.03
2023-04-02T11:30:43.000Z,7.89
2023-04-02T11:35:37.000Z,7.58
2023-04-02T11:40:31.000Z,8.01
2023-04-02T11:45:23.000Z,8.2
2023-04-02T11:50:17.000Z,8.66
2023-04-02T11:55:12.000Z,8.31
2023-04-02T12:00:06.000Z,8.12
2023-04-02T12:05:00.000Z,8.43
2023-04-02T12:09:54.000Z,8.32
2023-04-02T12:14:47.000Z,7.62
2023-04-02T12:19:40.000Z,7.47
2023-04-02T12:24:35.000Z,7.69
2023-04-02T12:29:29.000Z,7.86
2023-04-02T12:34:23.000Z,8
2023-04-02T12:39:17.000Z,7.61
2023-04-02T12:44:10.000Z,7.47
2023-04-02T12:49:05.000Z,7.78
2023-04-02T12:54:00.000Z,8.02
2023-04-02T12:58:54.000Z,7.78
2023-04-02T13:03:48.000Z,7.6
2023-04-02T13:08:42.000Z,7.54
2023-04-02T13:13:37.000Z,7.04
2023-04-02T13:18:31.000Z,7.04
2023-04-02T13:23:25.000Z,6.9
2023-04-02T13:28:18.000Z,7.01
2023-04-02T13:33:13.000Z,6.95
2023-04-02T13:38:07.000Z,7.04
2023-04-02T13:43:01.000Z,7.02
2023-04-02T13:47:55.000Z,7.13
2023-04-02T13:52:49.000Z,6.79
2023-04-02T13:57:43.000Z,6.78
2023-04-02T14:02:37.000Z,7.02
2023-04-02T14:07:32.000Z,7.07
2023-04-02T14:12:26.000Z,7.13
2023-04-02T14:17:19.000Z,6.98
2023-04-02T14:22:13.000Z,7.11
2023-04-02T14:27:07.000Z,6.94
2023-04-02T14:32:01.000Z,6.92
2023-04-02T14:36:55.000Z,6.9
2023-04-02T14:41:50.000Z,6.89
2023-04-02T14:46:44.000Z,6.98
2023-04-02T14:51:39.000Z,6.61
2023-04-02T14:56:33.000Z,6.75
2023-04-02T15:01:28.000Z,6.66
2023-04-02T15:06:21.000Z,6.81
2023-04-02T15:11:16.000Z,6.85
2023-04-02T15:16:10.000Z,6.65
2023-04-02T15:21:04.000Z,6.74
2023-04-02T15:25:59.000Z,6.54
2023-04-02T15:30:53.000Z,6.49
2023-04-02T15:35:47.000Z,6.58
2023-04-02T15:40:42.000Z,6.61
2023-04-02T15:45:37.000Z,6.5
2023-04-02T15:50:31.000Z,6.53
2023-04-02T15:55:25.000Z,6.52
2023-04-02T16:00:19.000Z,6.38
2023-04-02T16:05:13.000Z,6.46
2023-04-02T16:10:07.000Z,6.06
2023-04-02T16:14:59.000Z,6.09
2023-04-02T16:19:53.000Z,6.17
2023-04-02T16:24:47.000Z,5.81
2023-04-02T16:29:41.000Z,5.77
2023-04-02T16:34:35.000Z,6.08
2023-04-02T16:39:30.000Z,5.74
2023-04-02T16:44:21.000Z,5.45
2023-04-02T16:49:15.000Z,5.45
2023-04-02T16:54:09.000Z,5.33
2023-04-02T16:59:03.000Z,5.07
2023-04-02T17:03:57.000Z,5.03
2023-04-02T17:08:50.000Z,5.12
2023-04-02T17:13:44.000Z,4.92
2023-04-02T17:18:38.000Z,5.85
2023-04-02T17:23:33.000Z,5.31
2023-04-02T17:28:27.000Z,5.06
2023-04-02T17:33:21.000Z,4.93
2023-04-02T17:38:12.000Z,4.64
2023-04-02T17:43:07.000Z,4.63
2023-04-02T17:48:03.000Z,4.53
2023-04-02T17:52:54.000Z,4.44
2023-04-02T17:57:47.000Z,5.07
2023-04-02T18:02:41.000Z,4.84
2023-04-02T18:07:35.000Z,4.69
2023-04-02T18:12:29.000Z,4.61
2023-04-02T18:17:24.000Z,4.54
2023-04-02T18:22:18.000Z,4.53
2023-04-02T18:27:12.000Z,4.58
2023-04-02T18:32:07.000Z,4.48
2023-04-02T18:37:01.000Z,4.48
2023-04-02T18:41:55.000Z,4.52
2023-04-02T18:46:48.000Z,4.56
2023-04-02T18:51:43.000Z,4.47
2023-04-02T18:56:37.000Z,4.43
2023-04-02T19:01:30.000Z,4.46
2023-04-02T19:06:23.000Z,4.4
2023-04-02T19:11:17.000Z,4.33
2023-04-02T19:16:13.000Z,4.31
2023-04-02T19:21:04.000Z,4.19
2023-04-02T19:25:58.000Z,4.25
2023-04-02T19:30:51.000Z,4.24
2023-04-02T19:35:46.000Z,4.14
2023-04-02T19:40:39.000Z,4.05
2023-04-02T19:45:33.000Z,4.06
2023-04-02T19:50:27.000Z,4.06
2023-04-02T19:55:21.000Z,4
2023-04-02T20:00:13.000Z,3.97
2023-04-02T20:05:07.000Z,3.98
2023-04-02T20:10:01.000Z,3.98
2023-04-02T20:14:55.000Z,4.05
2023-04-02T20:19:47.000Z,4.04
2023-04-02T20:24:41.000Z,4.02
2023-04-02T20:29:35.000Z,3.91
2023-04-02T20:34:29.000Z,3.76
2023-04-02T20:39:23.000Z,3.73
2023-04-02T20:44:17.000Z,3.57
2023-04-02T20:49:11.000Z,3.52
2023-04-02T20:54:05.000Z,3.36
2023-04-02T20:58:59.000Z,3.14
2023-04-02T21:03:53.000Z,2.99
2023-04-02T21:08:47.000Z,2.82
2023-04-02T21:13:41.000Z,2.64
2023-04-02T21:18:35.000Z,2.49
2023-04-02T21:23:29.000Z,2.39
2023-04-02T21:28:26.000Z,2.21
2023-04-02T21:33:15.000Z,2.16
2023-04-02T21:38:09.000Z,2.04
2023-04-02T21:43:03.000Z,2.01
2023-04-02T21:47:57.000Z,2.03
2023-04-02T21:52:51.000Z,1.96
2023-04-02T21:57:45.000Z,1.91
2023-04-02T22:02:40.000Z,1.85
2023-04-02T22:07:34.000Z,1.81
2023-04-02T22:12:28.000Z,1.78
2023-04-02T22:17:22.000Z,1.71
2023-04-02T22:22:16.000Z,1.68
2023-04-02T22:27:10.000Z,1.57
2023-04-02T22:32:04.000Z,1.38
2023-04-02T22:37:00.000Z,1.27
2023-04-02T22:41:53.000Z,1.28
2023-04-02T22:46:46.000Z,1.22
2023-04-02T22:51:41.000Z,1.15
2023-04-02T22:56:35.000Z,1.05
2023-04-02T23:01:29.000Z,1.22
2023-04-02T23:06:23.000Z,1.26
2023-04-02T23:11:16.000Z,1.25
2023-04-02T23:16:13.000Z,1.39
2023-04-02T23:21:05.000Z,1.53
2023-04-02T23:25:59.000Z,1.59
2023-04-02T23:30:53.000Z,1.63
2023-04-02T23:35:47.000Z,1.63
2023-04-02T23:40:41.000Z,1.68
2023-04-02T23:45:36.000Z,1.67
2023-04-02T23:50:30.000Z,1.71
2023-04-02T23:55:24.000Z,1.74
